sensor_id;sensor_type;location;lat;lon;timestamp;pressure;altitude;pressure_sealevel;temperature
9985;BMP180;16737;50.932;6.780;2022-08-25T00:01:35;100468.00;;;28.10
9985;BMP180;16737;50.932;6.780;2022-08-25T00:04:08;100465.00;;;28.10
9985;BMP180;16737;50.932;6.780;2022-08-25T00:06:36;100466.00;;;28.10
9985;BMP180;16737;50.932;6.780;2022-08-25T00:09:04;100469.00;;;28.10
9985;BMP180;16737;50.932;6.780;2022-08-25T00:11:33;100471.00;;;28.10
9985;BMP180;16737;50.932;6.780;2022-08-25T00:14:03;100469.00;;;28.00
9985;BMP180;16737;50.932;6.780;2022-08-25T00:16:32;100469.00;;;28.00
9985;BMP180;16737;50.932;6.780;2022-08-25T00:19:02;100463.00;;;28.00
9985;BMP180;16737;50.932;6.780;2022-08-25T00:21:31;100462.00;;;27.90
9985;BMP180;16737;50.932;6.780;2022-08-25T00:23:59;100461.00;;;27.90
9985;BMP180;16737;50.932;6.780;2022-08-25T00:26:27;100454.00;;;27.80
9985;BMP180;16737;50.932;6.780;2022-08-25T00:28:54;100463.00;;;27.70
9985;BMP180;16737;50.932;6.780;2022-08-25T00:31:23;100459.00;;;27.70
9985;BMP180;16737;50.932;6.780;2022-08-25T00:33:51;100460.00;;;27.60
9985;BMP180;16737;50.932;6.780;2022-08-25T00:36:20;100464.00;;;27.50
9985;BMP180;16737;50.932;6.780;2022-08-25T00:38:49;100464.00;;;27.50
9985;BMP180;16737;50.932;6.780;2022-08-25T00:41:19;100459.00;;;27.40
9985;BMP180;16737;50.932;6.780;2022-08-25T00:43:49;100465.00;;;27.40
9985;BMP180;16737;50.932;6.780;2022-08-25T00:46:19;100468.00;;;27.40
9985;BMP180;16737;50.932;6.780;2022-08-25T00:48:50;100466.00;;;27.40
9985;BMP180;16737;50.932;6.780;2022-08-25T00:51:22;100471.00;;;27.40
9985;BMP180;16737;50.932;6.780;2022-08-25T00:53:53;100468.00;;;27.40
9985;BMP180;16737;50.932;6.780;2022-08-25T00:56:21;100464.00;;;27.40
9985;BMP180;16737;50.932;6.780;2022-08-25T00:58:48;100477.00;;;27.40
9985;BMP180;16737;50.932;6.780;2022-08-25T01:01:16;100474.00;;;27.30
9985;BMP180;16737;50.932;6.780;2022-08-25T01:03:44;100476.00;;;27.30
9985;BMP180;16737;50.932;6.780;2022-08-25T01:06:11;100468.00;;;27.30
9985;BMP180;16737;50.932;6.780;2022-08-25T01:08:39;100470.00;;;27.30
9985;BMP180;16737;50.932;6.780;2022-08-25T01:11:09;100469.00;;;27.30
9985;BMP180;16737;50.932;6.780;2022-08-25T01:13:39;100476.00;;;27.30
9985;BMP180;16737;50.932;6.780;2022-08-25T01:16:07;100467.00;;;27.20
9985;BMP180;16737;50.932;6.780;2022-08-25T01:18:49;100469.00;;;27.20
9985;BMP180;16737;50.932;6.780;2022-08-25T01:21:20;100467.00;;;27.20
9985;BMP180;16737;50.932;6.780;2022-08-25T01:23:49;100467.00;;;27.20
9985;BMP180;16737;50.932;6.780;2022-08-25T01:26:20;100466.00;;;27.10
9985;BMP180;16737;50.932;6.780;2022-08-25T01:28:49;100464.00;;;27.10
9985;BMP180;16737;50.932;6.780;2022-08-25T01:31:35;100464.00;;;27.10
9985;BMP180;16737;50.932;6.780;2022-08-25T01:34:04;100464.00;;;27.00
9985;BMP180;16737;50.932;6.780;2022-08-25T01:36:34;100463.00;;;27.00
9985;BMP180;16737;50.932;6.780;2022-08-25T01:39:04;100472.00;;;26.90
9985;BMP180;16737;50.932;6.780;2022-08-25T01:41:44;100465.00;;;26.90
9985;BMP180;16737;50.932;6.780;2022-08-25T01:44:13;100469.00;;;26.90
9985;BMP180;16737;50.932;6.780;2022-08-25T01:46:40;100464.00;;;26.90
9985;BMP180;16737;50.932;6.780;2022-08-25T01:49:08;100469.00;;;26.80
9985;BMP180;16737;50.932;6.780;2022-08-25T01:51:43;100467.00;;;26.80
9985;BMP180;16737;50.932;6.780;2022-08-25T01:54:13;100463.00;;;26.70
9985;BMP180;16737;50.932;6.780;2022-08-25T01:56:40;100458.00;;;26.70
9985;BMP180;16737;50.932;6.780;2022-08-25T01:59:07;100459.00;;;26.70
9985;BMP180;16737;50.932;6.780;2022-08-25T02:01:35;100466.00;;;26.60
9985;BMP180;16737;50.932;6.780;2022-08-25T02:04:03;100472.00;;;26.60
9985;BMP180;16737;50.932;6.780;2022-08-25T02:06:32;100473.00;;;26.60
9985;BMP180;16737;50.932;6.780;2022-08-25T02:09:05;100468.00;;;26.50
9985;BMP180;16737;50.932;6.780;2022-08-25T02:11:34;100473.00;;;26.50
9985;BMP180;16737;50.932;6.780;2022-08-25T02:14:01;100471.00;;;26.50
9985;BMP180;16737;50.932;6.780;2022-08-25T02:16:31;100473.00;;;26.50
9985;BMP180;16737;50.932;6.780;2022-08-25T02:18:59;100467.00;;;26.50
9985;BMP180;16737;50.932;6.780;2022-08-25T02:21:26;100467.00;;;26.40
9985;BMP180;16737;50.932;6.780;2022-08-25T02:23:54;100467.00;;;26.40
9985;BMP180;16737;50.932;6.780;2022-08-25T02:26:24;100465.00;;;26.40
9985;BMP180;16737;50.932;6.780;2022-08-25T02:28:52;100461.00;;;26.40
9985;BMP180;16737;50.932;6.780;2022-08-25T02:31:21;100465.00;;;26.30
9985;BMP180;16737;50.932;6.780;2022-08-25T02:33:49;100469.00;;;26.30
9985;BMP180;16737;50.932;6.780;2022-08-25T02:36:17;100466.00;;;26.30
9985;BMP180;16737;50.932;6.780;2022-08-25T02:38:45;100468.00;;;26.30
9985;BMP180;16737;50.932;6.780;2022-08-25T02:41:17;100468.00;;;26.20
9985;BMP180;16737;50.932;6.780;2022-08-25T02:43:47;100460.00;;;26.20
9985;BMP180;16737;50.932;6.780;2022-08-25T02:46:15;100458.00;;;26.20
9985;BMP180;16737;50.932;6.780;2022-08-25T02:48:43;100457.00;;;26.10
9985;BMP180;16737;50.932;6.780;2022-08-25T02:51:11;100448.00;;;26.10
9985;BMP180;16737;50.932;6.780;2022-08-25T02:53:40;100451.00;;;26.00
9985;BMP180;16737;50.932;6.780;2022-08-25T02:56:11;100445.00;;;26.00
9985;BMP180;16737;50.932;6.780;2022-08-25T02:58:40;100440.00;;;26.00
9985;BMP180;16737;50.932;6.780;2022-08-25T03:01:09;100440.00;;;26.00
9985;BMP180;16737;50.932;6.780;2022-08-25T03:03:37;100444.00;;;25.90
9985;BMP180;16737;50.932;6.780;2022-08-25T03:06:06;100436.00;;;25.90
9985;BMP180;16737;50.932;6.780;2022-08-25T03:08:34;100428.00;;;25.90
9985;BMP180;16737;50.932;6.780;2022-08-25T03:11:02;100427.00;;;25.80
9985;BMP180;16737;50.932;6.780;2022-08-25T03:13:30;100425.00;;;25.80
9985;BMP180;16737;50.932;6.780;2022-08-25T03:15:58;100426.00;;;25.80
9985;BMP180;16737;50.932;6.780;2022-08-25T03:18:27;100431.00;;;25.80
9985;BMP180;16737;50.932;6.780;2022-08-25T03:20:55;100427.00;;;25.70
9985;BMP180;16737;50.932;6.780;2022-08-25T03:23:22;100427.00;;;25.70
9985;BMP180;16737;50.932;6.780;2022-08-25T03:25:50;100425.00;;;25.70
9985;BMP180;16737;50.932;6.780;2022-08-25T03:28:34;100420.00;;;25.70
9985;BMP180;16737;50.932;6.780;2022-08-25T03:31:02;100413.00;;;25.60
9985;BMP180;16737;50.932;6.780;2022-08-25T03:33:31;100414.00;;;25.60
9985;BMP180;16737;50.932;6.780;2022-08-25T03:35:59;100408.00;;;25.60
9985;BMP180;16737;50.932;6.780;2022-08-25T03:38:26;100416.00;;;25.60
9985;BMP180;16737;50.932;6.780;2022-08-25T03:40:54;100417.00;;;25.50
9985;BMP180;16737;50.932;6.780;2022-08-25T03:43:21;100410.00;;;25.50
9985;BMP180;16737;50.932;6.780;2022-08-25T03:45:49;100407.00;;;25.50
9985;BMP180;16737;50.932;6.780;2022-08-25T03:48:17;100414.00;;;25.50
9985;BMP180;16737;50.932;6.780;2022-08-25T03:50:50;100410.00;;;25.40
9985;BMP180;16737;50.932;6.780;2022-08-25T03:53:19;100403.00;;;25.40
9985;BMP180;16737;50.932;6.780;2022-08-25T03:55:47;100401.00;;;25.40
9985;BMP180;16737;50.932;6.780;2022-08-25T03:58:14;100388.00;;;25.30
9985;BMP180;16737;50.932;6.780;2022-08-25T04:00:43;100373.00;;;25.30
9985;BMP180;16737;50.932;6.780;2022-08-25T04:03:10;100381.00;;;25.20
9985;BMP180;16737;50.932;6.780;2022-08-25T04:05:38;100387.00;;;25.20
9985;BMP180;16737;50.932;6.780;2022-08-25T04:08:06;100382.00;;;25.20
9985;BMP180;16737;50.932;6.780;2022-08-25T04:10:35;100383.00;;;25.20
9985;BMP180;16737;50.932;6.780;2022-08-25T04:13:03;100383.00;;;25.20
9985;BMP180;16737;50.932;6.780;2022-08-25T04:15:30;100390.00;;;25.20
9985;BMP180;16737;50.932;6.780;2022-08-25T04:17:57;100387.00;;;25.20
9985;BMP180;16737;50.932;6.780;2022-08-25T04:20:25;100399.00;;;25.20
9985;BMP180;16737;50.932;6.780;2022-08-25T04:22:52;100390.00;;;25.20
9985;BMP180;16737;50.932;6.780;2022-08-25T04:25:22;100392.00;;;25.10
9985;BMP180;16737;50.932;6.780;2022-08-25T04:27:49;100394.00;;;25.10
9985;BMP180;16737;50.932;6.780;2022-08-25T04:30:17;100396.00;;;25.10
9985;BMP180;16737;50.932;6.780;2022-08-25T04:32:44;100394.00;;;25.10
9985;BMP180;16737;50.932;6.780;2022-08-25T04:35:13;100396.00;;;25.10
9985;BMP180;16737;50.932;6.780;2022-08-25T04:37:40;100388.00;;;25.00
9985;BMP180;16737;50.932;6.780;2022-08-25T04:40:09;100397.00;;;25.00
9985;BMP180;16737;50.932;6.780;2022-08-25T04:42:38;100392.00;;;24.90
9985;BMP180;16737;50.932;6.780;2022-08-25T04:45:06;100387.00;;;24.90
9985;BMP180;16737;50.932;6.780;2022-08-25T04:47:36;100386.00;;;24.80
9985;BMP180;16737;50.932;6.780;2022-08-25T04:50:05;100391.00;;;24.80
9985;BMP180;16737;50.932;6.780;2022-08-25T04:52:33;100389.00;;;24.70
9985;BMP180;16737;50.932;6.780;2022-08-25T04:55:00;100386.00;;;24.70
9985;BMP180;16737;50.932;6.780;2022-08-25T04:57:28;100380.00;;;24.70
9985;BMP180;16737;50.932;6.780;2022-08-25T04:59:57;100375.00;;;24.70
9985;BMP180;16737;50.932;6.780;2022-08-25T05:02:24;100371.00;;;24.70
9985;BMP180;16737;50.932;6.780;2022-08-25T05:04:51;100373.00;;;24.70
9985;BMP180;16737;50.932;6.780;2022-08-25T05:07:20;100370.00;;;24.70
9985;BMP180;16737;50.932;6.780;2022-08-25T05:09:48;100376.00;;;24.80
9985;BMP180;16737;50.932;6.780;2022-08-25T05:12:15;100370.00;;;24.80
9985;BMP180;16737;50.932;6.780;2022-08-25T05:14:43;100372.00;;;24.80
9985;BMP180;16737;50.932;6.780;2022-08-25T05:17:11;100374.00;;;24.80
9985;BMP180;16737;50.932;6.780;2022-08-25T05:19:39;100367.00;;;24.80
9985;BMP180;16737;50.932;6.780;2022-08-25T05:22:07;100370.00;;;24.80
9985;BMP180;16737;50.932;6.780;2022-08-25T05:24:35;100373.00;;;24.80
9985;BMP180;16737;50.932;6.780;2022-08-25T05:27:02;100374.00;;;24.90
9985;BMP180;16737;50.932;6.780;2022-08-25T05:29:30;100373.00;;;24.90
9985;BMP180;16737;50.932;6.780;2022-08-25T05:31:57;100369.00;;;24.90
9985;BMP180;16737;50.932;6.780;2022-08-25T05:34:26;100371.00;;;24.90
9985;BMP180;16737;50.932;6.780;2022-08-25T05:36:53;100366.00;;;24.90
9985;BMP180;16737;50.932;6.780;2022-08-25T05:39:22;100366.00;;;25.00
9985;BMP180;16737;50.932;6.780;2022-08-25T05:41:49;100361.00;;;25.00
9985;BMP180;16737;50.932;6.780;2022-08-25T05:44:17;100362.00;;;25.00
9985;BMP180;16737;50.932;6.780;2022-08-25T05:46:44;100359.00;;;25.00
9985;BMP180;16737;50.932;6.780;2022-08-25T05:49:12;100360.00;;;25.00
9985;BMP180;16737;50.932;6.780;2022-08-25T05:51:41;100356.00;;;25.00
9985;BMP180;16737;50.932;6.780;2022-08-25T05:54:08;100353.00;;;25.00
9985;BMP180;16737;50.932;6.780;2022-08-25T05:56:35;100344.00;;;25.00
9985;BMP180;16737;50.932;6.780;2022-08-25T05:59:03;100352.00;;;25.00
9985;BMP180;16737;50.932;6.780;2022-08-25T06:01:30;100357.00;;;25.00
9985;BMP180;16737;50.932;6.780;2022-08-25T06:04:15;100360.00;;;25.10
9985;BMP180;16737;50.932;6.780;2022-08-25T06:06:46;100364.00;;;25.10
9985;BMP180;16737;50.932;6.780;2022-08-25T06:09:14;100360.00;;;25.10
9985;BMP180;16737;50.932;6.780;2022-08-25T06:11:42;100359.00;;;25.20
9985;BMP180;16737;50.932;6.780;2022-08-25T06:14:10;100349.00;;;25.30
9985;BMP180;16737;50.932;6.780;2022-08-25T06:16:38;100351.00;;;25.30
9985;BMP180;16737;50.932;6.780;2022-08-25T06:19:06;100356.00;;;25.30
9985;BMP180;16737;50.932;6.780;2022-08-25T06:21:33;100358.00;;;25.40
9985;BMP180;16737;50.932;6.780;2022-08-25T06:24:04;100360.00;;;25.40
9985;BMP180;16737;50.932;6.780;2022-08-25T06:26:32;100356.00;;;25.50
9985;BMP180;16737;50.932;6.780;2022-08-25T06:28:59;100363.00;;;25.60
9985;BMP180;16737;50.932;6.780;2022-08-25T06:31:27;100368.00;;;25.70
9985;BMP180;16737;50.932;6.780;2022-08-25T06:33:54;100372.00;;;25.70
9985;BMP180;16737;50.932;6.780;2022-08-25T06:36:23;100376.00;;;25.80
9985;BMP180;16737;50.932;6.780;2022-08-25T06:38:51;100372.00;;;25.90
9985;BMP180;16737;50.932;6.780;2022-08-25T06:41:20;100374.00;;;26.00
9985;BMP180;16737;50.932;6.780;2022-08-25T06:43:48;100376.00;;;26.10
9985;BMP180;16737;50.932;6.780;2022-08-25T06:46:17;100379.00;;;26.10
9985;BMP180;16737;50.932;6.780;2022-08-25T06:48:44;100378.00;;;26.20
9985;BMP180;16737;50.932;6.780;2022-08-25T06:51:15;100384.00;;;26.30
9985;BMP180;16737;50.932;6.780;2022-08-25T06:53:45;100384.00;;;26.40
9985;BMP180;16737;50.932;6.780;2022-08-25T06:56:14;100388.00;;;26.50
9985;BMP180;16737;50.932;6.780;2022-08-25T06:58:44;100384.00;;;26.50
9985;BMP180;16737;50.932;6.780;2022-08-25T07:01:13;100386.00;;;26.60
9985;BMP180;16737;50.932;6.780;2022-08-25T07:03:41;100382.00;;;26.70
9985;BMP180;16737;50.932;6.780;2022-08-25T07:06:09;100376.00;;;26.70
9985;BMP180;16737;50.932;6.780;2022-08-25T07:08:36;100375.00;;;26.80
9985;BMP180;16737;50.932;6.780;2022-08-25T07:11:05;100377.00;;;26.90
9985;BMP180;16737;50.932;6.780;2022-08-25T07:13:32;100376.00;;;27.00
9985;BMP180;16737;50.932;6.780;2022-08-25T07:16:02;100372.00;;;27.10
9985;BMP180;16737;50.932;6.780;2022-08-25T07:18:30;100376.00;;;27.10
9985;BMP180;16737;50.932;6.780;2022-08-25T07:20:58;100376.00;;;27.20
9985;BMP180;16737;50.932;6.780;2022-08-25T07:23:25;100370.00;;;27.30
9985;BMP180;16737;50.932;6.780;2022-08-25T07:25:53;100368.00;;;27.40
9985;BMP180;16737;50.932;6.780;2022-08-25T07:28:22;100372.00;;;27.50
9985;BMP180;16737;50.932;6.780;2022-08-25T07:30:49;100377.00;;;27.60
9985;BMP180;16737;50.932;6.780;2022-08-25T07:33:18;100378.00;;;27.70
9985;BMP180;16737;50.932;6.780;2022-08-25T07:35:45;100374.00;;;27.80
9985;BMP180;16737;50.932;6.780;2022-08-25T07:38:12;100372.00;;;27.90
9985;BMP180;16737;50.932;6.780;2022-08-25T07:40:39;100383.00;;;28.00
9985;BMP180;16737;50.932;6.780;2022-08-25T07:43:07;100381.00;;;28.10
9985;BMP180;16737;50.932;6.780;2022-08-25T07:45:37;100367.00;;;28.20
9985;BMP180;16737;50.932;6.780;2022-08-25T07:48:07;100366.00;;;28.30
9985;BMP180;16737;50.932;6.780;2022-08-25T07:50:38;100377.00;;;28.40
9985;BMP180;16737;50.932;6.780;2022-08-25T07:53:07;100384.00;;;28.50
9985;BMP180;16737;50.932;6.780;2022-08-25T07:55:35;100374.00;;;28.60
9985;BMP180;16737;50.932;6.780;2022-08-25T07:58:04;100380.00;;;28.70
9985;BMP180;16737;50.932;6.780;2022-08-25T08:00:33;100379.00;;;28.80
9985;BMP180;16737;50.932;6.780;2022-08-25T08:03:03;100385.00;;;29.00
9985;BMP180;16737;50.932;6.780;2022-08-25T08:05:31;100385.00;;;29.10
9985;BMP180;16737;50.932;6.780;2022-08-25T08:07:59;100386.00;;;29.20
9985;BMP180;16737;50.932;6.780;2022-08-25T08:10:27;100378.00;;;29.30
9985;BMP180;16737;50.932;6.780;2022-08-25T08:12:55;100374.00;;;29.40
9985;BMP180;16737;50.932;6.780;2022-08-25T08:15:22;100365.00;;;29.50
9985;BMP180;16737;50.932;6.780;2022-08-25T08:17:50;100369.00;;;29.60
9985;BMP180;16737;50.932;6.780;2022-08-25T08:20:17;100360.00;;;29.70
9985;BMP180;16737;50.932;6.780;2022-08-25T08:22:45;100359.00;;;29.90
9985;BMP180;16737;50.932;6.780;2022-08-25T08:25:14;100359.00;;;30.00
9985;BMP180;16737;50.932;6.780;2022-08-25T08:27:42;100358.00;;;30.10
9985;BMP180;16737;50.932;6.780;2022-08-25T08:30:12;100363.00;;;30.20
9985;BMP180;16737;50.932;6.780;2022-08-25T08:32:39;100358.00;;;30.30
9985;BMP180;16737;50.932;6.780;2022-08-25T08:35:07;100360.00;;;30.40
9985;BMP180;16737;50.932;6.780;2022-08-25T08:37:36;100355.00;;;30.60
9985;BMP180;16737;50.932;6.780;2022-08-25T08:40:08;100352.00;;;30.70
9985;BMP180;16737;50.932;6.780;2022-08-25T08:42:58;100359.00;;;30.70
9985;BMP180;16737;50.932;6.780;2022-08-25T08:45:35;100359.00;;;30.90
9985;BMP180;16737;50.932;6.780;2022-08-25T08:48:14;100350.00;;;31.00
9985;BMP180;16737;50.932;6.780;2022-08-25T08:50:53;100352.00;;;31.10
9985;BMP180;16737;50.932;6.780;2022-08-25T08:53:26;100347.00;;;31.30
9985;BMP180;16737;50.932;6.780;2022-08-25T08:56:00;100347.00;;;31.40
9985;BMP180;16737;50.932;6.780;2022-08-25T08:58:38;100344.00;;;31.50
9985;BMP180;16737;50.932;6.780;2022-08-25T09:01:09;100346.00;;;31.60
9985;BMP180;16737;50.932;6.780;2022-08-25T09:03:38;100337.00;;;31.70
9985;BMP180;16737;50.932;6.780;2022-08-25T09:06:10;100338.00;;;31.80
9985;BMP180;16737;50.932;6.780;2022-08-25T09:08:38;100335.00;;;31.90
9985;BMP180;16737;50.932;6.780;2022-08-25T09:11:17;100325.00;;;32.00
9985;BMP180;16737;50.932;6.780;2022-08-25T09:14:05;100323.00;;;32.10
9985;BMP180;16737;50.932;6.780;2022-08-25T09:16:41;100332.00;;;32.20
9985;BMP180;16737;50.932;6.780;2022-08-25T09:19:38;100322.00;;;32.30
9985;BMP180;16737;50.932;6.780;2022-08-25T09:22:15;100319.00;;;32.50
9985;BMP180;16737;50.932;6.780;2022-08-25T09:24:55;100323.00;;;32.60
9985;BMP180;16737;50.932;6.780;2022-08-25T09:27:29;100326.00;;;32.70
9985;BMP180;16737;50.932;6.780;2022-08-25T09:30:04;100333.00;;;32.90
9985;BMP180;16737;50.932;6.780;2022-08-25T09:32:34;100320.00;;;33.00
9985;BMP180;16737;50.932;6.780;2022-08-25T09:35:04;100313.00;;;33.10
9985;BMP180;16737;50.932;6.780;2022-08-25T09:37:32;100323.00;;;33.20
9985;BMP180;16737;50.932;6.780;2022-08-25T09:39:59;100320.00;;;33.30
9985;BMP180;16737;50.932;6.780;2022-08-25T09:42:45;100323.00;;;33.50
9985;BMP180;16737;50.932;6.780;2022-08-25T09:45:15;100317.00;;;33.60
9985;BMP180;16737;50.932;6.780;2022-08-25T09:47:44;100321.00;;;33.70
9985;BMP180;16737;50.932;6.780;2022-08-25T09:50:15;100319.00;;;33.80
9985;BMP180;16737;50.932;6.780;2022-08-25T09:52:44;100314.00;;;33.90
9985;BMP180;16737;50.932;6.780;2022-08-25T09:55:26;100317.00;;;34.00
9985;BMP180;16737;50.932;6.780;2022-08-25T09:57:56;100309.00;;;34.20
9985;BMP180;16737;50.932;6.780;2022-08-25T10:00:27;100308.00;;;34.30
9985;BMP180;16737;50.932;6.780;2022-08-25T10:03:08;100305.00;;;34.40
9985;BMP180;16737;50.932;6.780;2022-08-25T10:05:49;100313.00;;;34.50
9985;BMP180;16737;50.932;6.780;2022-08-25T10:08:29;100306.00;;;34.60
9985;BMP180;16737;50.932;6.780;2022-08-25T10:10:58;100303.00;;;34.70
9985;BMP180;16737;50.932;6.780;2022-08-25T10:13:38;100301.00;;;34.70
9985;BMP180;16737;50.932;6.780;2022-08-25T10:16:11;100290.00;;;34.90
9985;BMP180;16737;50.932;6.780;2022-08-25T10:18:39;100288.00;;;35.00
9985;BMP180;16737;50.932;6.780;2022-08-25T10:21:09;100288.00;;;35.10
9985;BMP180;16737;50.932;6.780;2022-08-25T10:23:41;100291.00;;;35.20
9985;BMP180;16737;50.932;6.780;2022-08-25T10:26:19;100287.00;;;35.30
9985;BMP180;16737;50.932;6.780;2022-08-25T10:28:58;100288.00;;;35.40
9985;BMP180;16737;50.932;6.780;2022-08-25T10:31:36;100283.00;;;35.50
9985;BMP180;16737;50.932;6.780;2022-08-25T10:34:16;100287.00;;;35.60
9985;BMP180;16737;50.932;6.780;2022-08-25T10:36:55;100278.00;;;35.70
9985;BMP180;16737;50.932;6.780;2022-08-25T10:39:37;100268.00;;;35.70
9985;BMP180;16737;50.932;6.780;2022-08-25T10:42:19;100262.00;;;35.80
9985;BMP180;16737;50.932;6.780;2022-08-25T10:44:55;100268.00;;;35.90
9985;BMP180;16737;50.932;6.780;2022-08-25T10:48:08;100261.00;;;36.00
9985;BMP180;16737;50.932;6.780;2022-08-25T10:50:42;100259.00;;;36.00
9985;BMP180;16737;50.932;6.780;2022-08-25T10:53:20;100261.00;;;36.10
9985;BMP180;16737;50.932;6.780;2022-08-25T10:56:06;100259.00;;;36.20
9985;BMP180;16737;50.932;6.780;2022-08-25T10:58:55;100255.00;;;36.20
9985;BMP180;16737;50.932;6.780;2022-08-25T11:01:34;100252.00;;;36.20
9985;BMP180;16737;50.932;6.780;2022-08-25T11:04:11;100253.00;;;36.30
9985;BMP180;16737;50.932;6.780;2022-08-25T11:06:42;100251.00;;;36.30
9985;BMP180;16737;50.932;6.780;2022-08-25T11:09:16;100242.00;;;36.40
9985;BMP180;16737;50.932;6.780;2022-08-25T11:11:48;100235.00;;;36.50
9985;BMP180;16737;50.932;6.780;2022-08-25T11:14:22;100240.00;;;36.60
9985;BMP180;16737;50.932;6.780;2022-08-25T11:16:54;100227.00;;;36.70
9985;BMP180;16737;50.932;6.780;2022-08-25T11:19:29;100237.00;;;36.80
9985;BMP180;16737;50.932;6.780;2022-08-25T11:22:02;100234.00;;;36.80
9985;BMP180;16737;50.932;6.780;2022-08-25T11:24:46;100231.00;;;36.90
9985;BMP180;16737;50.932;6.780;2022-08-25T11:27:20;100233.00;;;37.10
9985;BMP180;16737;50.932;6.780;2022-08-25T11:29:57;100235.00;;;37.20
9985;BMP180;16737;50.932;6.780;2022-08-25T11:32:26;100239.00;;;37.30
9985;BMP180;16737;50.932;6.780;2022-08-25T11:35:02;100229.00;;;37.40
9985;BMP180;16737;50.932;6.780;2022-08-25T11:37:31;100237.00;;;37.50
9985;BMP180;16737;50.932;6.780;2022-08-25T11:40:25;100230.00;;;37.60
9985;BMP180;16737;50.932;6.780;2022-08-25T11:43:04;100225.00;;;37.70
9985;BMP180;16737;50.932;6.780;2022-08-25T11:45:47;100230.00;;;37.70
9985;BMP180;16737;50.932;6.780;2022-08-25T11:48:27;100226.00;;;37.80
9985;BMP180;16737;50.932;6.780;2022-08-25T11:51:01;100225.00;;;37.80
9985;BMP180;16737;50.932;6.780;2022-08-25T11:53:31;100224.00;;;37.90
9985;BMP180;16737;50.932;6.780;2022-08-25T11:56:01;100217.00;;;38.00
9985;BMP180;16737;50.932;6.780;2022-08-25T11:58:40;100216.00;;;38.10
9985;BMP180;16737;50.932;6.780;2022-08-25T12:04:12;100206.00;;;38.30
9985;BMP180;16737;50.932;6.780;2022-08-25T12:10:10;100204.00;;;38.40
9985;BMP180;16737;50.932;6.780;2022-08-25T12:15:23;100206.00;;;38.60
9985;BMP180;16737;50.932;6.780;2022-08-25T12:18:10;100201.00;;;38.60
9985;BMP180;16737;50.932;6.780;2022-08-25T12:21:10;100193.00;;;38.70
9985;BMP180;16737;50.932;6.780;2022-08-25T12:23:39;100191.00;;;38.80
9985;BMP180;16737;50.932;6.780;2022-08-25T12:26:16;100191.00;;;38.80
9985;BMP180;16737;50.932;6.780;2022-08-25T12:31:48;100185.00;;;38.80
9985;BMP180;16737;50.932;6.780;2022-08-25T12:37:13;100184.00;;;38.80
9985;BMP180;16737;50.932;6.780;2022-08-25T12:39:52;100185.00;;;38.80
9985;BMP180;16737;50.932;6.780;2022-08-25T12:42:28;100176.00;;;38.80
9985;BMP180;16737;50.932;6.780;2022-08-25T12:45:16;100169.00;;;38.80
9985;BMP180;16737;50.932;6.780;2022-08-25T12:51:05;100181.00;;;38.70
9985;BMP180;16737;50.932;6.780;2022-08-25T12:53:35;100185.00;;;38.60
9985;BMP180;16737;50.932;6.780;2022-08-25T12:56:07;100171.00;;;38.60
9985;BMP180;16737;50.932;6.780;2022-08-25T12:58:47;100174.00;;;38.50
9985;BMP180;16737;50.932;6.780;2022-08-25T13:01:22;100168.00;;;38.50
9985;BMP180;16737;50.932;6.780;2022-08-25T13:07:07;100165.00;;;38.60
9985;BMP180;16737;50.932;6.780;2022-08-25T13:10:09;100168.00;;;38.60
9985;BMP180;16737;50.932;6.780;2022-08-25T13:12:44;100161.00;;;38.60
9985;BMP180;16737;50.932;6.780;2022-08-25T13:15:25;100160.00;;;38.50
9985;BMP180;16737;50.932;6.780;2022-08-25T13:17:53;100154.00;;;38.60
9985;BMP180;16737;50.932;6.780;2022-08-25T13:20:24;100158.00;;;38.60
9985;BMP180;16737;50.932;6.780;2022-08-25T13:22:58;100156.00;;;38.60
9985;BMP180;16737;50.932;6.780;2022-08-25T13:25:28;100154.00;;;38.70
9985;BMP180;16737;50.932;6.780;2022-08-25T13:28:00;100140.00;;;38.70
9985;BMP180;16737;50.932;6.780;2022-08-25T13:30:33;100139.00;;;38.70
9985;BMP180;16737;50.932;6.780;2022-08-25T13:33:16;100128.00;;;38.70
9985;BMP180;16737;50.932;6.780;2022-08-25T13:35:48;100131.00;;;38.70
9985;BMP180;16737;50.932;6.780;2022-08-25T13:38:36;100133.00;;;38.80
9985;BMP180;16737;50.932;6.780;2022-08-25T13:41:03;100126.00;;;38.70
9985;BMP180;16737;50.932;6.780;2022-08-25T13:43:31;100102.00;;;38.80
9985;BMP180;16737;50.932;6.780;2022-08-25T13:46:00;100128.00;;;38.80
9985;BMP180;16737;50.932;6.780;2022-08-25T13:48:36;100121.00;;;38.80
9985;BMP180;16737;50.932;6.780;2022-08-25T13:51:17;100120.00;;;38.80
9985;BMP180;16737;50.932;6.780;2022-08-25T13:53:51;100125.00;;;38.80
9985;BMP180;16737;50.932;6.780;2022-08-25T13:56:24;100122.00;;;38.80
9985;BMP180;16737;50.932;6.780;2022-08-25T13:58:53;100120.00;;;38.80
9985;BMP180;16737;50.932;6.780;2022-08-25T14:01:23;100122.00;;;38.80
9985;BMP180;16737;50.932;6.780;2022-08-25T14:03:52;100118.00;;;38.80
9985;BMP180;16737;50.932;6.780;2022-08-25T14:06:22;100112.00;;;38.70
9985;BMP180;16737;50.932;6.780;2022-08-25T14:09:06;100105.00;;;38.70
9985;BMP180;16737;50.932;6.780;2022-08-25T14:11:41;100109.00;;;38.70
9985;BMP180;16737;50.932;6.780;2022-08-25T14:14:11;100111.00;;;38.70
9985;BMP180;16737;50.932;6.780;2022-08-25T14:16:48;100107.00;;;38.70
9985;BMP180;16737;50.932;6.780;2022-08-25T14:19:18;100108.00;;;38.70
9985;BMP180;16737;50.932;6.780;2022-08-25T14:21:48;100108.00;;;38.60
9985;BMP180;16737;50.932;6.780;2022-08-25T14:24:19;100102.00;;;38.60
9985;BMP180;16737;50.932;6.780;2022-08-25T14:26:47;100104.00;;;38.60
9985;BMP180;16737;50.932;6.780;2022-08-25T14:29:15;100099.00;;;38.60
9985;BMP180;16737;50.932;6.780;2022-08-25T14:31:45;100094.00;;;38.60
9985;BMP180;16737;50.932;6.780;2022-08-25T14:34:15;100091.00;;;38.70
9985;BMP180;16737;50.932;6.780;2022-08-25T14:36:43;100099.00;;;38.70
9985;BMP180;16737;50.932;6.780;2022-08-25T14:39:14;100096.00;;;38.80
9985;BMP180;16737;50.932;6.780;2022-08-25T14:41:42;100090.00;;;38.80
9985;BMP180;16737;50.932;6.780;2022-08-25T14:44:11;100092.00;;;38.80
9985;BMP180;16737;50.932;6.780;2022-08-25T14:46:45;100081.00;;;38.80
9985;BMP180;16737;50.932;6.780;2022-08-25T14:49:18;100083.00;;;38.80
9985;BMP180;16737;50.932;6.780;2022-08-25T14:51:46;100084.00;;;38.90
9985;BMP180;16737;50.932;6.780;2022-08-25T14:54:15;100081.00;;;39.00